Birr, Ireland

6:02 PM IST on July 06, 2015 (GMT +0100)
Roscrea | | Change Station
CLOSE
Current Station
Personal Weather Station
Location: Roscrea, Co.Tipperary
Elevation: 450 ft
Nearby Weather Stations

Elev 450 ft 52.94 °N, 7.79 °W | Updated 50 seconds ago

Scattered Clouds
Scattered Clouds
66.0 °F
Feels Like 66.0 °F
N
1.0
Wind Variable Wind from SSW
Gusts 9.0 mph

Today
High -- | Low -- °F
--% Chance of Precip.
Yesterday
High -- | Low -- °F
Precip. -- in
5:13 AM 9:58 PM
Waning Gibbous, 74% visible
Pressure 29.59 in
Visibility 6.2 miles
Clouds Few 2200 ft
Scattered Clouds 6000 ft
Dew Point 60 °F
Humidity 85%
Rainfall 0.02 in
Snow Depth Not available.
UV 3 out of 12
Pollen Not available.
Air Quality Not available.
Flu Activity Not available.
METAR EINN 061630Z 18014KT 9999 FEW022 SCT060 21/14 Q1002 NOSIG

More Conditions Fewer Conditions

Pressure 29.59 in
Visibility 6.2 miles
Clouds Few 2200 ft
Scattered Clouds 6000 ft
Dew Point 60 °F
Humidity 85%
Rainfall 0.02 in
Snow Depth Not available.
UV 3 out of 12
Pollen Not available.
Air Quality Not available.
Flu Activity Not available.
METAR EINN 061630Z 18014KT 9999 FEW022 SCT060 21/14 Q1002 NOSIG

More Conditions Fewer Conditions

10-Day Weather Forecast

×

Almanac

Astronomy

Jul. 06, 2015 Rise Set
Actual Time
Civil Twilight
Nautical Twilight
Astronomical Twilight
Moon
Length of Visible Light
Length of Day
Tomorrow will be .
, % of the Moon is Illuminated

Today's Extremes

Country Highs Country Lows

Community

WunderPhotos

Upload Photos

1,835,604 photos uploaded!

WunderBlogs® & News

Nearby

Air Quality

  Air Quality AQ Index Pollutant
Not available.

Snow Depth

Station Depth Elevation

Earthquake Activity

City Distance Mag. Time & Date
Minimum magnitude displayed is 2.5.

Coastal Water Temperatures

Place Temperature

Stations

Nearby Weather Stations

Station Location Temp. Windchill Dew Point Humidity Wind Precip. Elev Updated Type